createdAt,value
2018-04-27T00:01:42.119Z,6.40
2018-04-27T00:04:21.862Z,5.77
2018-04-27T00:07:00.432Z,6.30
2018-04-27T00:09:36.619Z,6.43
2018-04-27T00:12:20.360Z,6.23
2018-04-27T00:17:58.815Z,5.60
2018-04-27T00:20:32.479Z,6.23
2018-04-27T00:23:07.153Z,6.13
2018-04-27T00:25:41.567Z,6.63
2018-04-27T00:28:16.911Z,6.47
2018-04-27T00:30:51.361Z,6.53
2018-04-27T00:33:24.988Z,6.40
2018-04-27T00:35:58.669Z,7.37
2018-04-27T00:38:34.036Z,6.67
2018-04-27T00:41:08.648Z,7.27
2018-04-27T00:43:42.275Z,7.60
2018-04-27T00:46:16.949Z,7.63
2018-04-27T00:48:50.570Z,6.60
2018-04-27T00:51:24.235Z,7.20
2018-04-27T00:53:57.859Z,6.90
2018-04-27T00:56:33.256Z,6.27
2018-04-27T00:59:07.120Z,6.43
2018-04-27T01:01:41.700Z,6.07
2018-04-27T01:04:15.339Z,5.93
2018-04-27T01:06:49.001Z,6.47
2018-04-27T01:09:22.625Z,5.57
2018-04-27T01:11:57.248Z,5.57
2018-04-27T01:14:30.867Z,6.37
2018-04-27T01:17:04.530Z,6.37
2018-04-27T01:19:38.149Z,6.47
2018-04-27T01:22:11.804Z,6.17
2018-04-27T01:24:45.423Z,6.17
2018-04-27T01:27:20.061Z,6.30
2018-04-27T01:29:53.722Z,6.23
2018-04-27T01:32:27.391Z,6.03
2018-04-27T01:35:01.021Z,6.50
2018-04-27T01:37:34.690Z,6.63
2018-04-27T01:40:08.310Z,6.47
2018-04-27T01:42:41.970Z,7.03
2018-04-27T01:45:15.612Z,6.83
2018-04-27T01:47:50.225Z,6.90
2018-04-27T01:50:24.812Z,8.13
2018-04-27T01:52:59.148Z,7.33
2018-04-27T01:55:33.728Z,7.03
2018-04-27T01:58:08.156Z,7.60
2018-04-27T02:00:43.487Z,7.93
2018-04-27T02:03:17.943Z,7.43
2018-04-27T02:05:52.551Z,7.73
2018-04-27T02:08:27.191Z,7.57
2018-04-27T02:11:00.835Z,7.53
2018-04-27T02:13:34.507Z,7.60
2018-04-27T02:16:08.130Z,7.67
2018-04-27T02:18:41.807Z,6.97
2018-04-27T02:21:15.431Z,6.70
2018-04-27T02:23:49.102Z,6.73
2018-04-27T02:26:22.726Z,6.23
2018-04-27T02:28:56.388Z,6.40
2018-04-27T02:31:30.008Z,7.23
2018-04-27T02:34:03.668Z,6.43
2018-04-27T02:36:38.054Z,6.67
2018-04-27T02:39:11.720Z,6.63
2018-04-27T02:41:45.347Z,6.27
2018-04-27T02:44:19.662Z,5.97
2018-04-27T02:46:53.296Z,5.13
2018-04-27T02:49:28.714Z,6.57
2018-04-27T02:52:02.339Z,6.20
2018-04-27T02:54:37.736Z,5.27
2018-04-27T02:57:11.365Z,5.87
2018-04-27T02:59:45.019Z,6.50
2018-04-27T03:02:18.817Z,5.07
2018-04-27T03:04:53.484Z,5.50
2018-04-27T03:07:27.110Z,5.13
2018-04-27T03:10:00.602Z,5.60
2018-04-27T03:12:35.001Z,6.10
2018-04-27T03:15:08.707Z,5.20
2018-04-27T03:17:42.326Z,6.00
2018-04-27T03:20:16.754Z,5.67
2018-04-27T03:22:50.377Z,5.23
2018-04-27T03:25:24.992Z,5.70
2018-04-27T03:27:58.616Z,5.97
2018-04-27T03:30:32.285Z,5.40
2018-04-27T03:33:05.903Z,5.60
2018-04-27T03:35:39.567Z,5.33
2018-04-27T03:38:13.975Z,6.00
2018-04-27T03:40:47.635Z,5.00
2018-04-27T03:43:21.259Z,5.87
2018-04-27T03:45:54.928Z,5.60
2018-04-27T03:48:28.543Z,5.90
2018-04-27T03:51:02.202Z,5.30
2018-04-27T03:53:35.826Z,5.53
2018-04-27T03:56:09.491Z,5.23
2018-04-27T03:58:44.836Z,5.80
2018-04-27T04:01:31.629Z,5.67
2018-04-27T04:04:16.420Z,5.80
2018-04-27T04:06:50.489Z,5.30
2018-04-27T04:09:24.116Z,5.37
2018-04-27T04:11:58.579Z,6.47
2018-04-27T04:14:32.202Z,5.97
2018-04-27T04:17:05.895Z,5.60
2018-04-27T04:19:39.520Z,6.10
2018-04-27T04:22:13.171Z,5.90
2018-04-27T04:24:46.789Z,6.53
2018-04-27T04:27:20.443Z,5.87
2018-04-27T04:29:54.069Z,5.73
2018-04-27T04:32:27.737Z,5.63
2018-04-27T04:35:16.824Z,5.77
2018-04-27T04:37:51.333Z,6.83
2018-04-27T04:40:24.957Z,6.47
2018-04-27T04:42:58.634Z,5.90
2018-04-27T04:45:32.470Z,5.73
2018-04-27T04:48:07.696Z,5.77
2018-04-27T04:50:41.318Z,6.13
2018-04-27T04:53:15.943Z,5.47
2018-04-27T04:55:49.565Z,6.10
2018-04-27T04:58:23.223Z,6.13
2018-04-27T05:00:56.636Z,5.30
2018-04-27T05:03:30.123Z,5.30
2018-04-27T05:06:03.523Z,5.10
2018-04-27T05:08:37.186Z,5.47
2018-04-27T05:11:10.829Z,5.60
2018-04-27T05:13:45.484Z,4.83
2018-04-27T05:16:18.896Z,4.87
2018-04-27T05:18:54.484Z,4.63
2018-04-27T05:21:29.062Z,5.20
2018-04-27T05:24:03.486Z,4.80
2018-04-27T05:26:37.748Z,4.80
2018-04-27T05:29:11.415Z,4.63
2018-04-27T05:31:44.698Z,4.30
2018-04-27T05:34:18.112Z,4.43
2018-04-27T05:36:52.398Z,4.20
2018-04-27T05:39:26.164Z,4.83
2018-04-27T05:41:59.138Z,5.00
2018-04-27T05:44:32.472Z,3.90
2018-04-27T05:47:06.567Z,4.40
2018-04-27T05:49:39.906Z,4.33
2018-04-27T05:52:13.561Z,4.03
2018-04-27T05:54:47.231Z,3.60
2018-04-27T05:57:20.865Z,3.27
2018-04-27T05:59:55.520Z,3.37
2018-04-27T06:02:29.151Z,3.90
2018-04-27T06:05:03.605Z,3.33
2018-04-27T06:07:38.243Z,3.50
2018-04-27T06:10:12.694Z,3.63
2018-04-27T06:12:46.556Z,3.90
2018-04-27T06:15:20.220Z,3.83
2018-04-27T06:17:54.844Z,3.60
2018-04-27T06:20:28.520Z,3.60
2018-04-27T06:23:02.147Z,3.13
2018-04-27T06:25:35.813Z,3.40
2018-04-27T06:28:09.437Z,3.20
2018-04-27T06:30:43.427Z,3.77
2018-04-27T06:33:17.060Z,3.07
2018-04-27T06:35:51.800Z,3.00
2018-04-27T06:38:25.997Z,2.85
2018-04-27T06:41:00.535Z,2.67
2018-04-27T06:43:34.114Z,2.30
2018-04-27T06:46:08.445Z,2.47
2018-04-27T06:48:42.944Z,2.65
2018-04-27T06:51:17.816Z,2.50
2018-04-27T06:53:52.017Z,2.60
2018-04-27T06:56:25.794Z,2.80
2018-04-27T06:59:00.086Z,2.40
2018-04-27T07:01:33.671Z,2.83
2018-04-27T07:04:07.531Z,2.80
2018-04-27T07:06:42.857Z,2.53
2018-04-27T07:09:17.148Z,2.55
2018-04-27T07:11:50.704Z,2.67
2018-04-27T07:14:24.445Z,2.53
2018-04-27T07:16:58.722Z,2.72
2018-04-27T07:19:33.062Z,2.58
2018-04-27T07:22:08.229Z,2.50
2018-04-27T07:24:43.425Z,2.67
2018-04-27T07:27:18.584Z,2.55
2018-04-27T07:29:53.798Z,2.70
2018-04-27T07:32:27.662Z,2.53
2018-04-27T07:35:02.656Z,2.70
2018-04-27T07:37:36.532Z,2.40
2018-04-27T07:40:10.764Z,2.47
2018-04-27T07:42:44.290Z,3.35
2018-04-27T07:45:18.838Z,2.90
2018-04-27T07:47:53.663Z,3.00
2018-04-27T07:50:28.545Z,3.33
2018-04-27T07:53:02.463Z,3.17
2018-04-27T07:55:37.018Z,2.85
2018-04-27T07:58:11.324Z,3.12
2018-04-27T08:00:45.663Z,3.47
2018-04-27T08:03:25.667Z,3.15
2018-04-27T08:05:59.925Z,3.60
2018-04-27T08:08:34.249Z,3.20
2018-04-27T08:11:07.834Z,2.65
2018-04-27T08:13:42.711Z,2.83
2018-04-27T08:16:16.285Z,2.92
2018-04-27T08:18:49.903Z,3.42
2018-04-27T08:21:23.542Z,2.92
2018-04-27T08:23:57.111Z,2.80
2018-04-27T08:26:30.679Z,2.67
2018-04-27T08:29:06.059Z,3.00
2018-04-27T08:31:41.394Z,2.47
2018-04-27T08:34:14.757Z,2.60
2018-04-27T08:36:49.898Z,2.78
2018-04-27T08:39:24.130Z,3.10
2018-04-27T08:41:58.327Z,2.70
2018-04-27T08:44:32.560Z,2.53
2018-04-27T08:47:06.748Z,3.17
2018-04-27T08:49:41.000Z,2.70
2018-04-27T08:52:14.537Z,2.97
2018-04-27T08:54:50.186Z,2.90
2018-04-27T08:57:24.477Z,2.97
2018-04-27T08:59:59.018Z,2.95
2018-04-27T09:02:33.984Z,2.70
2018-04-27T09:05:08.213Z,2.50
2018-04-27T09:07:43.850Z,1.92
2018-04-27T09:10:19.028Z,2.80
2018-04-27T09:12:53.224Z,2.90
2018-04-27T09:15:27.451Z,2.40
2018-04-27T09:18:01.655Z,2.55
2018-04-27T09:20:35.876Z,2.58
2018-04-27T09:23:11.638Z,2.65
2018-04-27T09:25:46.544Z,2.62
2018-04-27T09:28:20.769Z,2.17
2018-04-27T09:30:55.113Z,2.03
2018-04-27T09:33:31.057Z,1.77
2018-04-27T09:36:05.972Z,2.42
2018-04-27T09:38:42.058Z,1.55
2018-04-27T09:41:15.443Z,2.97
2018-04-27T09:43:49.003Z,2.70
2018-04-27T09:46:23.268Z,2.70
2018-04-27T09:48:57.594Z,2.60
2018-04-27T09:51:32.016Z,2.45
2018-04-27T09:54:06.983Z,2.37
2018-04-27T09:56:41.224Z,1.80
2018-04-27T09:59:16.387Z,2.15
2018-04-27T10:01:52.347Z,3.12
2018-04-27T10:04:25.641Z,2.30
2018-04-27T10:06:59.218Z,2.60
2018-04-27T10:09:32.844Z,2.60
2018-04-27T10:12:06.180Z,2.90
2018-04-27T10:14:40.576Z,3.50
2018-04-27T10:17:14.799Z,3.03
2018-04-27T10:19:48.984Z,3.20
2018-04-27T10:22:23.263Z,2.78
2018-04-27T10:24:57.043Z,3.20
2018-04-27T10:27:32.236Z,3.55
2018-04-27T10:30:06.475Z,3.30
2018-04-27T10:32:40.657Z,3.62
2018-04-27T10:35:16.628Z,3.25
2018-04-27T10:37:50.842Z,2.97
2018-04-27T10:40:25.733Z,2.90
2018-04-27T10:42:59.931Z,2.42
2018-04-27T10:45:33.631Z,2.93
2018-04-27T10:48:07.584Z,3.87
2018-04-27T10:50:40.389Z,2.80
2018-04-27T10:53:13.375Z,3.70
2018-04-27T10:55:46.388Z,2.62
2018-04-27T10:58:20.315Z,2.90
2018-04-27T11:00:53.318Z,2.33
2018-04-27T11:03:28.752Z,3.30
2018-04-27T11:06:02.218Z,2.90
2018-04-27T11:08:35.996Z,3.23
2018-04-27T11:11:10.551Z,2.87
2018-04-27T11:13:44.113Z,3.42
2018-04-27T11:16:18.691Z,3.10
2018-04-27T11:18:52.449Z,3.00
2018-04-27T11:21:26.189Z,3.27
2018-04-27T11:24:00.195Z,3.43
2018-04-27T11:26:33.187Z,2.97
2018-04-27T11:29:08.389Z,2.92
2018-04-27T11:31:42.603Z,2.90
2018-04-27T11:34:16.788Z,2.80
2018-04-27T11:36:51.015Z,3.05
2018-04-27T11:39:26.195Z,2.87
2018-04-27T11:42:01.375Z,3.15
2018-04-27T11:44:36.315Z,3.45
2018-04-27T11:47:09.900Z,2.90
2018-04-27T11:49:44.853Z,2.65
2018-04-27T11:52:18.410Z,2.00
2018-04-27T11:54:52.712Z,2.37
2018-04-27T11:57:27.532Z,2.97
2018-04-27T12:00:01.087Z,2.92
2018-04-27T12:02:35.083Z,2.90
2018-04-27T12:05:08.573Z,3.22
2018-04-27T12:07:42.908Z,2.83
2018-04-27T12:10:16.455Z,2.20
2018-04-27T12:12:51.320Z,2.33
2018-04-27T12:15:24.904Z,2.70
2018-04-27T12:17:59.594Z,2.72
2018-04-27T12:20:34.809Z,2.95
2018-04-27T12:23:10.020Z,2.92
2018-04-27T12:25:43.559Z,2.80
2018-04-27T12:28:17.454Z,2.35
2018-04-27T12:30:51.734Z,2.37
2018-04-27T12:33:26.063Z,2.00
2018-04-27T12:35:59.597Z,2.10
2018-04-27T12:38:33.157Z,1.45
2018-04-27T12:41:06.695Z,1.50
2018-04-27T12:43:41.544Z,1.90
2018-04-27T12:46:15.165Z,1.62
2018-04-27T12:48:49.296Z,1.75
2018-04-27T12:51:22.822Z,1.42
2018-04-27T12:53:56.427Z,1.70
2018-04-27T12:56:29.958Z,1.52
2018-04-27T12:59:04.192Z,1.70
2018-04-27T13:01:39.139Z,1.30
2018-04-27T13:04:12.709Z,1.60
2018-04-27T13:06:47.013Z,1.77
2018-04-27T13:09:21.583Z,1.62
2018-04-27T13:11:55.160Z,1.83
2018-04-27T13:14:29.819Z,2.10
2018-04-27T13:17:03.345Z,1.75
2018-04-27T13:19:38.968Z,1.87
2018-04-27T13:22:13.198Z,1.92
2018-04-27T13:24:47.393Z,1.70
2018-04-27T13:27:21.626Z,1.40
2018-04-27T13:29:55.843Z,14.13
2018-04-27T13:32:30.064Z,2.47
2018-04-27T13:35:04.253Z,1.40
2018-04-27T13:37:38.491Z,1.65
2018-04-27T13:40:12.373Z,1.87
2018-04-27T13:42:46.593Z,1.37
2018-04-27T13:45:20.791Z,1.50
2018-04-27T13:47:55.979Z,1.37
2018-04-27T13:50:30.479Z,1.20
2018-04-27T13:53:04.416Z,1.10
2018-04-27T13:55:38.719Z,1.05
2018-04-27T13:58:12.284Z,1.40
2018-04-27T14:00:46.218Z,1.20
2018-04-27T14:03:20.797Z,1.52
2018-04-27T14:05:56.143Z,1.60
2018-04-27T14:08:32.601Z,1.57
2018-04-27T14:11:05.574Z,1.30
2018-04-27T14:13:49.889Z,1.80
2018-04-27T14:16:23.079Z,1.60
2018-04-27T14:19:05.634Z,1.80
2018-04-27T14:21:43.191Z,1.83
2018-04-27T14:24:17.783Z,2.10
2018-04-27T14:29:32.868Z,1.83
2018-04-27T14:32:07.458Z,1.93
2018-04-27T14:34:51.384Z,1.63
2018-04-27T14:37:25.519Z,2.23
2018-04-27T14:39:59.951Z,1.90
2018-04-27T14:45:39.610Z,1.90
2018-04-27T14:51:21.432Z,1.83
2018-04-27T14:54:04.580Z,2.00
2018-04-27T14:56:42.663Z,1.70
2018-04-27T14:59:16.483Z,2.10
2018-04-27T15:01:49.520Z,1.83
2018-04-27T15:04:23.146Z,1.60
2018-04-27T15:06:56.827Z,2.43
2018-04-27T15:09:31.417Z,2.30
2018-04-27T15:12:04.457Z,2.30
2018-04-27T15:14:38.401Z,2.47
2018-04-27T15:17:12.898Z,2.37
2018-04-27T15:22:43.968Z,2.33
2018-04-27T15:30:52.397Z,2.50
2018-04-27T15:33:26.229Z,3.10
2018-04-27T15:35:59.641Z,2.60
2018-04-27T15:38:33.640Z,2.43
2018-04-27T15:41:06.648Z,2.80
2018-04-27T15:43:39.622Z,2.27
2018-04-27T15:46:13.956Z,2.83
2018-04-27T15:48:47.244Z,2.33
2018-04-27T15:51:20.253Z,2.70
2018-04-27T15:53:54.055Z,2.37
2018-04-27T15:56:36.960Z,2.70
2018-04-27T15:59:15.537Z,2.67
2018-04-27T16:01:52.204Z,2.40
2018-04-27T16:04:33.765Z,2.63
2018-04-27T16:07:08.633Z,2.53
2018-04-27T16:09:42.571Z,2.77
2018-04-27T16:12:16.346Z,2.63
2018-04-27T16:14:49.710Z,2.63
2018-04-27T16:17:22.884Z,2.73
2018-04-27T16:19:55.893Z,2.73
2018-04-27T16:22:28.691Z,2.60
2018-04-27T16:25:01.737Z,2.53
2018-04-27T16:27:35.715Z,2.63
2018-04-27T16:30:08.691Z,2.80
2018-04-27T16:32:41.743Z,3.10
2018-04-27T16:35:14.727Z,2.53
2018-04-27T16:37:48.704Z,3.30
2018-04-27T16:40:22.694Z,2.40
2018-04-27T16:42:58.100Z,3.00
2018-04-27T16:45:31.732Z,2.90
2018-04-27T16:48:05.520Z,2.83
2018-04-27T16:50:38.517Z,2.80
2018-04-27T16:53:12.181Z,3.40
2018-04-27T16:55:46.121Z,3.20
2018-04-27T16:58:20.434Z,3.10
2018-04-27T17:00:53.432Z,2.50
2018-04-27T17:03:27.230Z,2.60
2018-04-27T17:06:00.600Z,2.90
2018-04-27T17:08:34.601Z,2.53
2018-04-27T17:11:07.597Z,3.20
2018-04-27T17:13:40.915Z,2.60
2018-04-27T17:16:14.656Z,2.80
2018-04-27T17:18:47.680Z,2.80
2018-04-27T17:21:20.672Z,2.90
2018-04-27T17:23:53.681Z,3.40
2018-04-27T17:26:27.501Z,3.07
2018-04-27T17:29:00.668Z,2.80
2018-04-27T17:31:34.411Z,3.43
2018-04-27T17:34:07.496Z,3.10
2018-04-27T17:36:40.550Z,3.00
2018-04-27T17:39:14.433Z,3.10
2018-04-27T17:41:47.428Z,3.10
2018-04-27T17:44:20.545Z,3.57
2018-04-27T17:46:54.671Z,3.30
2018-04-27T17:49:28.654Z,3.60
2018-04-27T17:52:03.073Z,3.83
2018-04-27T17:54:37.189Z,4.03
2018-04-27T17:57:12.578Z,3.60
2018-04-27T17:59:45.942Z,3.50
2018-04-27T18:02:20.232Z,3.60
2018-04-27T18:04:54.340Z,3.60
2018-04-27T18:07:28.781Z,3.40
2018-04-27T18:10:02.486Z,3.90
2018-04-27T18:12:36.136Z,4.73
2018-04-27T18:15:09.483Z,3.73
2018-04-27T18:17:42.743Z,3.80
2018-04-27T18:20:15.559Z,4.20
2018-04-27T18:22:48.877Z,3.43
2018-04-27T18:25:23.550Z,3.20
2018-04-27T18:27:56.685Z,3.57
2018-04-27T18:30:30.657Z,2.60
2018-04-27T18:33:05.301Z,3.07
2018-04-27T18:35:38.995Z,3.10
2018-04-27T18:38:12.198Z,3.40
2018-04-27T18:40:46.344Z,3.50
2018-04-27T18:43:22.085Z,3.23
2018-04-27T18:46:00.244Z,3.87
2018-04-27T18:48:34.252Z,3.63
2018-04-27T18:51:08.951Z,4.07
2018-04-27T18:53:41.959Z,4.07
2018-04-27T18:56:18.191Z,3.60
2018-04-27T18:58:56.944Z,3.47
2018-04-27T19:01:29.987Z,3.93
2018-04-27T19:04:03.010Z,3.30
2018-04-27T19:06:35.988Z,4.10
2018-04-27T19:09:09.760Z,3.50
2018-04-27T19:11:42.736Z,3.70
2018-04-27T19:14:17.203Z,3.53
2018-04-27T19:16:51.264Z,3.70
2018-04-27T19:19:24.293Z,3.57
2018-04-27T19:21:58.029Z,4.23
2018-04-27T19:24:32.039Z,3.63
2018-04-27T19:27:05.009Z,4.03
2018-04-27T19:29:38.025Z,3.97
2018-04-27T19:32:13.407Z,3.70
2018-04-27T19:34:46.517Z,4.17
2018-04-27T19:37:19.490Z,3.83
2018-04-27T19:39:53.313Z,4.73
2018-04-27T19:42:26.303Z,4.17
2018-04-27T19:44:59.313Z,4.33
2018-04-27T19:47:32.286Z,4.50
2018-04-27T19:50:05.665Z,4.47
2018-04-27T19:52:38.646Z,4.90
2018-04-27T19:55:11.667Z,4.60
2018-04-27T19:57:44.652Z,4.50
2018-04-27T20:00:18.636Z,5.00
2018-04-27T20:02:52.636Z,4.47
2018-04-27T20:05:25.694Z,3.77
2018-04-27T20:07:59.433Z,4.53
2018-04-27T20:10:37.393Z,4.10
2018-04-27T20:13:12.508Z,4.00
2018-04-27T20:15:46.280Z,4.37
2018-04-27T20:18:21.103Z,4.03
2018-04-27T20:20:54.128Z,4.13
2018-04-27T20:23:33.037Z,4.37
2018-04-27T20:26:06.044Z,4.13
2018-04-27T20:28:40.816Z,4.13
2018-04-27T20:31:14.808Z,3.87
2018-04-27T20:33:47.574Z,3.83
2018-04-27T20:36:21.616Z,3.50
2018-04-27T20:38:55.381Z,3.50
2018-04-27T20:41:30.147Z,3.57
2018-04-27T20:44:04.852Z,3.43
2018-04-27T20:46:37.867Z,3.87
2018-04-27T20:49:10.865Z,3.93
2018-04-27T20:51:43.877Z,4.00
2018-04-27T20:54:16.879Z,3.67
2018-04-27T20:56:50.655Z,3.47
2018-04-27T20:59:24.590Z,3.37
2018-04-27T21:01:59.289Z,3.10
2018-04-27T21:04:32.261Z,3.70
2018-04-27T21:07:06.244Z,2.90
2018-04-27T21:09:39.208Z,3.40
2018-04-27T21:12:12.212Z,3.20
2018-04-27T21:14:45.196Z,3.07
2018-04-27T21:17:18.227Z,2.90
2018-04-27T21:19:51.223Z,2.87
2018-04-27T21:22:24.033Z,3.07
2018-04-27T21:24:56.811Z,3.17
2018-04-27T21:27:37.417Z,3.07
2018-04-27T21:30:10.398Z,3.23
2018-04-27T21:32:43.407Z,3.03
2018-04-27T21:35:16.391Z,3.10
2018-04-27T21:37:59.344Z,3.03
2018-04-27T21:40:34.069Z,3.03
2018-04-27T21:43:07.829Z,2.80
2018-04-27T21:45:40.811Z,3.00
2018-04-27T21:48:13.832Z,3.60
2018-04-27T21:50:47.581Z,3.67
2018-04-27T21:53:20.637Z,3.03
2018-04-27T21:55:53.601Z,3.20
2018-04-27T21:58:29.314Z,3.30
2018-04-27T22:01:02.342Z,3.63
2018-04-27T22:03:38.160Z,3.00
2018-04-27T22:06:15.022Z,3.43
2018-04-27T22:08:50.981Z,3.53
2018-04-27T22:14:29.863Z,3.47
2018-04-27T22:17:09.455Z,3.37
2018-04-27T22:19:42.462Z,3.13
2018-04-27T22:22:16.387Z,3.40
2018-04-27T22:24:50.186Z,3.43
2018-04-27T22:27:30.565Z,3.47
2018-04-27T22:30:03.958Z,3.53
2018-04-27T22:32:38.484Z,3.60
2018-04-27T22:35:12.324Z,3.80
2018-04-27T22:37:45.453Z,3.60
2018-04-27T22:40:25.370Z,3.63
2018-04-27T22:43:00.083Z,4.10
2018-04-27T22:45:35.818Z,4.07
2018-04-27T22:48:10.553Z,3.90
2018-04-27T22:50:52.406Z,3.53
2018-04-27T22:53:27.610Z,3.60
2018-04-27T22:56:00.650Z,3.37
2018-04-27T22:58:34.575Z,3.80
2018-04-27T23:01:08.544Z,4.40
2018-04-27T23:03:43.084Z,3.87
2018-04-27T23:06:17.067Z,4.07
2018-04-27T23:08:51.739Z,3.87
2018-04-27T23:11:27.483Z,4.50
2018-04-27T23:14:16.176Z,4.73
2018-04-27T23:16:52.525Z,4.30
2018-04-27T23:19:27.317Z,4.07
2018-04-27T23:22:05.328Z,3.97
2018-04-27T23:24:38.297Z,4.47
2018-04-27T23:27:11.318Z,4.93
2018-04-27T23:29:45.317Z,4.27
2018-04-27T23:32:18.338Z,4.93
2018-04-27T23:34:51.328Z,4.73
2018-04-27T23:37:25.348Z,4.47
2018-04-27T23:39:59.094Z,4.30
2018-04-27T23:42:31.928Z,4.83
2018-04-27T23:45:04.911Z,5.30
2018-04-27T23:47:37.940Z,4.80
2018-04-27T23:50:14.703Z,4.60
2018-04-27T23:52:47.506Z,4.67
2018-04-27T23:55:21.404Z,4.47
2018-04-27T23:57:54.430Z,4.83
